Time;durP1;ratioP1;P1;durP2;ratioP2;P2;SDS_P1;SDS_P2;PMS_P1;PMS_P2;Temp;Humidity;BMP_temperature;BMP_pressure;BME280_temperature;BME280_humidity;BME280_pressure;Samples;Min_cycle;Max_cycle;Signal;HPM_P1;HPM_P2
2023/05/23 00:01:25;;;;;;;13.82;4.47;;;;;;;0.01;0.00;59042.03;10433486;28;20546;-79
2023/05/23 00:06:26;;;;;;;9.98;4.70;;;;;;;0.01;0.00;59042.03;10386616;28;20049;-79
2023/05/23 00:11:28;;;;;;;9.60;4.07;;;;;;;0.01;0.00;59042.03;10417644;28;20041;-80
2023/05/23 00:16:29;;;;;;;10.32;4.47;;;;;;;0.01;0.00;59042.03;10423320;28;20107;-79
2023/05/23 00:21:32;;;;;;;10.60;4.25;;;;;;;0.01;0.00;59042.03;10390860;28;20052;-79
2023/05/23 00:26:33;;;;;;;10.57;4.78;;;;;;;0.01;0.00;59042.03;10415449;28;20721;-80
2023/05/23 00:31:35;;;;;;;9.55;4.30;;;;;;;0.01;0.00;59042.03;10422494;28;20123;-79
2023/05/23 00:41:53;;;;;;;11.05;4.75;;;;;;;0.01;0.00;59042.03;11368289;22;20053;-81
2023/05/23 00:46:56;;;;;;;9.95;4.43;;;;;;;0.01;0.00;59042.03;10342924;28;20077;-81
2023/05/23 00:51:59;;;;;;;11.63;4.97;;;;;;;0.01;0.00;59042.03;10342654;28;20067;-81
2023/05/23 00:57:01;;;;;;;10.02;4.82;;;;;;;0.01;0.00;59042.03;10359762;28;20100;-81
2023/05/23 01:02:03;;;;;;;9.50;4.43;;;;;;;0.01;0.00;59042.03;10350147;28;20084;-81
2023/05/23 01:07:05;;;;;;;9.98;4.45;;;;;;;0.01;0.00;59042.03;10348611;28;20050;-81
2023/05/23 01:12:37;;;;;;;10.55;4.22;;;;;;;0.01;0.00;59042.03;10343915;28;20041;-81
2023/05/23 01:17:58;;;;;;;10.30;4.60;;;;;;;0.01;0.00;59042.03;10342784;28;20111;-81
2023/05/23 01:23:10;;;;;;;9.75;4.47;;;;;;;0.01;0.00;59042.03;10345140;28;20049;-79
2023/05/23 01:28:17;;;;;;;8.80;3.83;;;;;;;0.01;0.00;59042.03;10378049;28;20092;-81
2023/05/23 01:33:19;;;;;;;9.40;4.43;;;;;;;0.01;0.00;59042.03;10370344;28;20088;-81
2023/05/23 01:38:21;;;;;;;8.60;3.72;;;;;;;0.01;0.00;59042.03;10372829;28;20045;-80
2023/05/23 01:43:24;;;;;;;13.85;4.32;;;;;;;0.01;0.00;59042.03;10353943;28;20789;-81
2023/05/23 01:48:27;;;;;;;13.82;5.70;;;;;;;0.01;0.00;59042.03;10337845;28;20052;-81
2023/05/23 01:53:30;;;;;;;17.43;8.50;;;;;;;0.01;0.00;59042.03;10369536;28;24421;-81
2023/05/23 01:58:32;;;;;;;15.43;6.80;;;;;;;0.01;0.00;59042.03;10338969;28;20461;-81
2023/05/23 02:03:34;;;;;;;18.02;7.53;;;;;;;0.01;0.00;59042.03;10333032;28;20070;-81
2023/05/23 02:08:35;;;;;;;18.45;6.40;;;;;;;0.01;0.00;59042.03;10346501;28;20542;-81
2023/05/23 02:13:37;;;;;;;16.10;6.35;;;;;;;0.01;0.00;59042.03;10351758;28;20073;-81
2023/05/23 02:18:39;;;;;;;18.10;7.60;;;;;;;0.01;0.00;59042.03;10367990;28;20062;-81
2023/05/23 02:23:40;;;;;;;17.05;7.75;;;;;;;0.01;0.00;59042.03;10344504;28;20065;-81
2023/05/23 02:28:42;;;;;;;18.77;8.57;;;;;;;0.01;0.00;59042.03;10370421;28;20050;-80
2023/05/23 02:33:43;;;;;;;18.55;7.60;;;;;;;0.01;0.00;59042.03;10347903;28;20082;-81
2023/05/23 02:38:45;;;;;;;19.00;7.43;;;;;;;0.01;0.00;59042.03;10352645;28;20084;-81
2023/05/23 02:43:47;;;;;;;16.90;6.22;;;;;;;0.01;0.00;59042.03;10353167;28;20045;-82
2023/05/23 02:48:50;;;;;;;17.90;7.13;;;;;;;0.01;0.00;59042.03;10351730;28;20050;-81
2023/05/23 02:53:51;;;;;;;11.43;5.50;;;;;;;0.01;0.00;59042.03;10369115;28;20042;-81
2023/05/23 02:58:53;;;;;;;16.52;6.53;;;;;;;0.01;0.00;59042.03;10351148;28;20046;-81
2023/05/23 03:03:55;;;;;;;12.20;5.50;;;;;;;0.01;0.00;59042.03;10363026;28;20045;-81
2023/05/23 03:08:57;;;;;;;12.18;5.63;;;;;;;0.01;0.00;59042.03;10350910;28;20096;-81
2023/05/23 03:13:58;;;;;;;16.27;5.97;;;;;;;0.01;0.00;59042.03;10371443;28;20061;-81
2023/05/23 03:19:00;;;;;;;17.60;6.40;;;;;;;0.01;0.00;59042.03;10374117;28;20469;-81
2023/05/23 03:24:02;;;;;;;12.75;5.18;;;;;;;0.01;0.00;59042.03;10337867;28;20069;-81
2023/05/23 03:29:04;;;;;;;11.20;5.13;;;;;;;0.01;0.00;59042.03;10376439;28;20065;-80
2023/05/23 03:34:06;;;;;;;11.35;5.30;;;;;;;0.01;0.00;59042.03;10370655;28;20128;-81
2023/05/23 03:39:09;;;;;;;15.50;6.07;;;;;;;0.01;0.00;59042.03;10355119;28;20057;-80
2023/05/23 03:44:11;;;;;;;13.85;5.63;;;;;;;0.01;0.00;59042.03;10373833;28;20085;-79
2023/05/23 03:49:12;;;;;;;14.18;4.43;;;;;;;0.01;0.00;59042.03;10352432;28;20109;-81
2023/05/23 03:54:16;;;;;;;11.95;5.10;;;;;;;0.01;0.00;59042.03;10353248;28;20049;-80
2023/05/23 03:59:18;;;;;;;5.50;3.13;;;;;;;0.01;0.00;59042.03;10354522;28;20523;-81
2023/05/23 04:04:20;;;;;;;9.45;3.58;;;;;;;0.01;0.00;59042.03;10347008;28;20042;-81
2023/05/23 04:09:23;;;;;;;14.57;4.47;;;;;;;0.01;0.00;59042.03;10371292;28;20046;-81
2023/05/23 04:14:26;;;;;;;9.38;4.35;;;;;;;0.01;0.00;59042.03;10354233;28;20111;-81
2023/05/23 04:19:28;;;;;;;12.82;3.25;;;;;;;0.01;0.00;59042.03;10353171;28;20076;-81
2023/05/23 04:24:30;;;;;;;8.40;3.97;;;;;;;0.01;0.00;59042.03;10352742;28;20769;-81
2023/05/23 04:29:34;;;;;;;7.97;3.22;;;;;;;0.01;0.00;59042.03;10351278;28;20041;-81
2023/05/23 04:34:36;;;;;;;7.15;3.28;;;;;;;0.01;0.00;59042.03;10329810;28;20133;-82
2023/05/23 04:39:39;;;;;;;9.35;3.42;;;;;;;0.01;0.00;59042.03;10350991;28;20049;-81
2023/05/23 04:44:57;;;;;;;7.22;2.40;;;;;;;0.01;0.00;59042.03;10334188;28;20129;-82
2023/05/23 04:50:39;;;;;;;5.68;2.20;;;;;;;0.01;0.00;59042.03;10362877;28;20061;-82
2023/05/23 04:55:41;;;;;;;9.27;2.47;;;;;;;0.01;0.00;59042.03;10336629;28;20050;-82
2023/05/23 05:00:47;;;;;;;4.05;1.98;;;;;;;0.01;0.00;59042.03;10345755;28;20038;-82
2023/05/23 05:05:52;;;;;;;3.92;2.20;;;;;;;0.01;0.00;59042.03;10344372;28;20050;-82
2023/05/23 05:10:54;;;;;;;6.38;2.78;;;;;;;0.01;0.00;59042.03;10368882;28;20048;-82
2023/05/23 05:15:57;;;;;;;6.05;2.53;;;;;;;0.01;0.00;59042.03;10327915;28;20108;-83
2023/05/23 05:21:00;;;;;;;5.28;2.80;;;;;;;0.01;0.00;59042.03;10367742;28;20646;-83
2023/05/23 05:26:02;;;;;;;5.93;3.05;;;;;;;0.01;0.00;59042.03;10349699;28;20050;-83
2023/05/23 05:31:04;;;;;;;10.50;2.58;;;;;;;0.01;0.00;59042.03;10334069;28;20511;-83
2023/05/23 05:36:08;;;;;;;6.43;2.45;;;;;;;0.01;0.00;59042.03;10345154;28;20053;-83
2023/05/23 05:41:10;;;;;;;8.25;3.25;;;;;;;0.01;0.00;59042.03;10349741;28;20439;-86
2023/05/23 05:46:24;;;;;;;10.02;2.65;;;;;;;0.01;0.00;59042.03;10363094;28;20041;-86
2023/05/23 05:51:27;;;;;;;4.65;2.03;;;;;;;0.01;0.00;59042.03;10342873;28;20669;-85
2023/05/23 05:56:29;;;;;;;3.63;1.55;;;;;;;0.01;0.00;59042.03;10346399;28;20045;-85
2023/05/23 06:01:33;;;;;;;6.97;3.13;;;;;;;0.01;0.00;59042.03;10345548;28;20046;-85
2023/05/23 06:06:35;;;;;;;;;;;;;;;0.01;0.00;59042.03;10346750;28;20042;-84
2023/05/23 06:11:40;;;;;;;5.82;1.35;;;;;;;0.01;0.00;59042.03;10362597;28;19957;-84
2023/05/23 06:16:42;;;;;;;6.50;2.00;;;;;;;0.01;0.00;59042.03;10341919;28;20046;-87
2023/05/23 06:21:44;;;;;;;6.25;1.58;;;;;;;0.01;0.00;59042.03;10342954;28;20068;-87
2023/05/23 06:26:45;;;;;;;3.78;1.52;;;;;;;0.01;0.00;59042.03;10348289;28;20049;-84
2023/05/23 06:31:47;;;;;;;2.50;1.08;;;;;;;0.01;0.00;59042.03;10344949;28;20049;-84
2023/05/23 06:36:49;;;;;;;5.60;1.63;;;;;;;0.01;0.00;59042.03;10355504;28;20104;-89
2023/05/23 06:41:51;;;;;;;3.55;1.17;;;;;;;0.01;0.00;59042.03;10364168;28;20049;-84
2023/05/23 06:46:57;;;;;;;4.45;1.52;;;;;;;0.01;0.00;59042.03;10365327;28;20045;-85
2023/05/23 06:51:59;;;;;;;4.60;0.73;;;;;;;0.01;0.00;59042.03;10369935;28;20045;-83
2023/05/23 06:57:00;;;;;;;1.42;0.75;;;;;;;0.01;0.00;59042.03;10369466;28;20052;-84
2023/05/23 07:02:02;;;;;;;4.18;1.23;;;;;;;0.01;0.00;59042.03;10365668;28;20066;-85
2023/05/23 07:07:04;;;;;;;3.58;1.02;;;;;;;0.01;0.00;59042.03;10368483;28;20108;-83
2023/05/23 07:12:06;;;;;;;1.98;1.00;;;;;;;0.01;0.00;59042.03;10367733;28;20466;-84
2023/05/23 07:17:11;;;;;;;3.50;0.85;;;;;;;0.01;0.00;59042.03;10349312;28;20685;-85
2023/05/23 07:22:13;;;;;;;7.55;1.52;;;;;;;0.01;0.00;59042.03;10347851;28;20049;-85
2023/05/23 07:27:17;;;;;;;4.50;1.17;;;;;;;0.01;0.00;59042.03;10350539;28;20085;-84
2023/05/23 07:32:18;;;;;;;3.28;1.30;;;;;;;0.01;0.00;59042.03;10335505;28;20571;-83
2023/05/23 07:37:22;;;;;;;4.68;1.73;;;;;;;0.01;0.00;59042.03;10348982;28;20054;-85
2023/05/23 07:42:23;;;;;;;6.13;1.42;;;;;;;0.01;0.00;59042.03;10347250;28;20069;-84
2023/05/23 07:47:26;;;;;;;3.90;1.27;;;;;;;0.01;0.00;59042.03;10346214;28;20073;-83
2023/05/23 07:52:29;;;;;;;2.53;1.10;;;;;;;0.01;0.00;59042.03;10346664;28;20045;-84
2023/05/23 07:57:31;;;;;;;2.78;1.33;;;;;;;0.01;0.00;59042.03;10353015;28;20042;-84
2023/05/23 08:02:33;;;;;;;4.63;1.63;;;;;;;0.01;0.00;59042.03;10374581;28;20084;-84
2023/05/23 08:07:35;;;;;;;0.93;0.52;;;;;;;0.01;0.00;59042.03;10374425;28;20545;-83
2023/05/23 08:12:38;;;;;;;2.08;1.20;;;;;;;0.01;0.00;59042.03;10346390;28;20068;-83
2023/05/23 08:17:46;;;;;;;1.85;1.10;;;;;;;0.01;0.00;59042.03;10354336;28;20045;-84
2023/05/23 08:22:48;;;;;;;2.83;1.33;;;;;;;0.01;0.00;59042.03;10356204;28;20129;-83
2023/05/23 08:27:50;;;;;;;8.27;1.80;;;;;;;0.01;0.00;59042.03;10337782;28;20430;-82
2023/05/23 08:33:18;;;;;;;4.72;1.50;;;;;;;0.01;0.00;59042.03;10364473;28;20125;-83
2023/05/23 08:38:22;;;;;;;4.47;1.58;;;;;;;0.01;0.00;59042.03;10343018;28;20113;-85
2023/05/23 08:43:35;;;;;;;6.10;1.65;;;;;;;0.01;0.00;59042.03;10343682;28;20125;-83
2023/05/23 08:48:37;;;;;;;10.13;1.20;;;;;;;0.01;0.00;59042.03;10332578;28;20145;-81
2023/05/23 08:53:45;;;;;;;5.97;1.90;;;;;;;0.01;0.00;59042.03;10346896;28;20053;-86
2023/05/23 08:58:47;;;;;;;4.80;1.40;;;;;;;0.01;0.00;59042.03;10357003;28;20057;-82
2023/05/23 09:03:52;;;;;;;2.83;1.33;;;;;;;0.01;0.00;59042.03;10338310;28;20041;-83
2023/05/23 09:09:00;;;;;;;3.72;1.38;;;;;;;0.01;0.00;59042.03;10340673;28;20132;-82
2023/05/23 09:14:06;;;;;;;5.55;1.73;;;;;;;0.01;0.00;59042.03;10356881;28;20048;-84
2023/05/23 09:19:10;;;;;;;10.10;1.27;;;;;;;0.01;0.00;59042.03;10350131;28;20046;-82
2023/05/23 09:24:13;;;;;;;;;;;;;;;0.01;0.00;59042.03;10344635;28;20142;-81
2023/05/23 09:29:18;;;;;;;;;;;;;;;0.01;0.00;59042.03;10366673;28;19945;-83
2023/05/23 09:34:20;;;;;;;4.40;1.17;;;;;;;0.01;0.00;59042.03;10344859;28;19975;-83
2023/05/23 09:39:21;;;;;;;1.23;0.77;;;;;;;0.01;0.00;59042.03;10348944;28;20042;-83
2023/05/23 09:44:23;;;;;;;1.48;0.80;;;;;;;0.01;0.00;59042.03;10346558;28;20048;-82
2023/05/23 09:49:25;;;;;;;1.17;0.82;;;;;;;0.01;0.00;59042.03;10366925;28;20074;-82
2023/05/23 09:54:27;;;;;;;3.83;1.25;;;;;;;0.01;0.00;59042.03;10341419;28;20451;-82
2023/05/23 09:59:31;;;;;;;6.80;1.30;;;;;;;0.01;0.00;59042.03;10365605;28;20065;-82
2023/05/23 10:04:34;;;;;;;3.80;1.20;;;;;;;0.01;0.00;59042.03;10336488;28;20121;-81
2023/05/23 10:09:38;;;;;;;5.80;1.48;;;;;;;0.01;0.00;59042.03;10363948;28;20076;-82
2023/05/23 10:14:44;;;;;;;4.13;1.02;;;;;;;0.01;0.00;59042.03;10364539;28;20061;-84
2023/05/23 10:19:57;;;;;;;14.02;1.98;;;;;;;0.01;0.00;59042.03;10358277;28;20052;-82
2023/05/23 10:24:59;;;;;;;3.85;1.42;;;;;;;0.01;0.00;59042.03;10354386;28;20129;-83
2023/05/23 10:30:00;;;;;;;7.28;1.40;;;;;;;0.01;0.00;59042.03;10341650;28;20050;-83
2023/05/23 10:35:08;;;;;;;7.75;1.48;;;;;;;0.01;0.00;59042.03;10370197;28;20077;-82
2023/05/23 10:40:47;;;;;;;9.38;1.50;;;;;;;0.01;0.00;59042.03;10366585;28;20519;-83
2023/05/23 10:45:50;;;;;;;4.68;1.38;;;;;;;0.01;0.00;59042.03;10343354;28;20125;-82
2023/05/23 10:51:02;;;;;;;12.30;2.00;;;;;;;0.01;0.00;59042.03;10367566;28;20029;-82
2023/05/23 10:56:19;;;;;;;7.85;1.38;;;;;;;0.01;0.00;59042.03;10343635;28;20084;-85
2023/05/23 11:01:22;;;;;;;5.63;1.85;;;;;;;0.01;0.00;59042.03;10340790;28;20474;-82
2023/05/23 11:06:37;;;;;;;11.73;1.20;;;;;;;0.01;0.00;59042.03;10364438;28;20049;-82
2023/05/23 11:11:51;;;;;;;7.38;1.58;;;;;;;0.01;0.00;59042.03;10360185;28;20053;-82
2023/05/23 11:16:52;;;;;;;3.78;1.58;;;;;;;0.01;0.00;59042.03;10367536;28;20060;-82
2023/05/23 11:22:01;;;;;;;1.73;0.75;;;;;;;0.01;0.00;59042.03;10365794;28;20034;-82
2023/05/23 11:27:03;;;;;;;5.17;1.20;;;;;;;0.01;0.00;59042.03;10339474;28;20046;-82
2023/05/23 11:32:11;;;;;;;8.80;1.77;;;;;;;0.01;0.00;59042.03;10365677;28;20038;-81
2023/05/23 11:37:18;;;;;;;8.27;1.27;;;;;;;0.01;0.00;59042.03;10366695;28;20095;-83
2023/05/23 11:42:21;;;;;;;3.50;1.23;;;;;;;0.01;0.00;59042.03;10371341;28;20057;-82
2023/05/23 11:47:22;;;;;;;6.07;1.65;;;;;;;0.01;0.00;59042.03;10360803;28;20056;-83
2023/05/23 11:52:31;;;;;;;7.10;1.45;;;;;;;0.01;0.00;59042.03;10342535;28;20109;-82
2023/05/23 11:57:32;;;;;;;4.30;1.05;;;;;;;0.01;0.00;59042.03;10354522;28;20132;-84
2023/05/23 12:02:41;;;;;;;7.18;1.70;;;;;;;0.01;0.00;59042.03;10337106;28;20172;-82
2023/05/23 12:07:48;;;;;;;3.10;1.20;;;;;;;0.01;0.00;59042.03;10368548;28;20049;-82
2023/05/23 12:12:50;;;;;;;2.55;1.08;;;;;;;0.01;0.00;59042.03;10370191;28;20042;-82
2023/05/23 12:17:53;;;;;;;6.88;1.60;;;;;;;0.01;0.00;59042.03;10370043;28;20061;-83
2023/05/23 12:22:55;;;;;;;6.78;1.48;;;;;;;0.01;0.00;59042.03;10370233;28;20050;-82
2023/05/23 12:27:57;;;;;;;7.13;1.08;;;;;;;0.01;0.00;59042.03;10370202;28;20573;-82
2023/05/23 12:32:59;;;;;;;10.15;1.75;;;;;;;0.01;0.00;59042.03;10369808;28;20112;-83
2023/05/23 12:38:00;;;;;;;7.68;1.30;;;;;;;0.01;0.00;59042.03;10368594;28;20721;-82
2023/05/23 12:43:02;;;;;;;2.50;1.02;;;;;;;0.01;0.00;59042.03;10370643;28;20165;-81
2023/05/23 12:48:06;;;;;;;7.88;1.10;;;;;;;0.01;0.00;59042.03;10368704;28;20134;-82
2023/05/23 12:53:07;;;;;;;8.73;1.35;;;;;;;0.01;0.00;59042.03;10348437;28;20070;-82
2023/05/23 12:58:09;;;;;;;2.17;0.80;;;;;;;0.01;0.00;59042.03;10369241;28;20070;-82
2023/05/23 13:03:10;;;;;;;4.85;1.17;;;;;;;0.01;0.00;59042.03;10349030;28;20136;-83
2023/05/23 13:08:12;;;;;;;3.72;0.80;;;;;;;0.01;0.00;59042.03;10370381;28;20123;-85
2023/05/23 13:13:14;;;;;;;4.28;1.13;;;;;;;0.01;0.00;59042.03;10350316;28;20049;-83
2023/05/23 13:18:16;;;;;;;6.28;1.50;;;;;;;0.01;0.00;59042.03;10344407;28;20113;-82
2023/05/23 13:23:18;;;;;;;5.40;1.60;;;;;;;0.01;0.00;59042.03;10370741;28;20517;-84
2023/05/23 13:28:19;;;;;;;1.60;0.80;;;;;;;0.01;0.00;59042.03;10371747;28;20092;-82
2023/05/23 13:33:22;;;;;;;3.55;1.20;;;;;;;0.01;0.00;59042.03;10351939;28;20045;-82
2023/05/23 13:38:26;;;;;;;6.10;1.30;;;;;;;0.01;0.00;59042.03;10373695;28;20054;-82
2023/05/23 13:43:27;;;;;;;5.63;1.38;;;;;;;0.01;0.00;59042.03;10370576;28;20046;-83
2023/05/23 13:48:29;;;;;;;2.38;0.98;;;;;;;0.01;0.00;59042.03;10341363;28;20037;-81
2023/05/23 13:53:31;;;;;;;4.25;0.80;;;;;;;0.01;0.00;59042.03;10339295;28;20042;-82
2023/05/23 13:58:33;;;;;;;3.45;1.15;;;;;;;0.01;0.00;59042.03;10367957;28;20062;-84
2023/05/23 14:03:35;;;;;;;3.97;0.93;;;;;;;0.01;0.00;59042.03;10365276;28;20834;-83
2023/05/23 14:08:37;;;;;;;5.85;1.70;;;;;;;0.01;0.00;59042.03;10361868;28;20692;-85
2023/05/23 14:13:38;;;;;;;12.07;1.60;;;;;;;0.01;0.00;59042.03;10340406;28;20041;-86
2023/05/23 14:18:40;;;;;;;3.83;0.95;;;;;;;0.01;0.00;59042.03;10338318;28;20045;-85
2023/05/23 14:23:41;;;;;;;6.05;1.30;;;;;;;0.01;0.00;59042.03;10366476;28;20076;-82
2023/05/23 14:28:43;;;;;;;3.58;0.95;;;;;;;0.01;0.00;59042.03;10368021;28;20038;-83
2023/05/23 14:33:45;;;;;;;4.43;1.00;;;;;;;0.01;0.00;59042.03;10333222;28;20065;-84
2023/05/23 14:38:46;;;;;;;4.30;0.90;;;;;;;0.01;0.00;59042.03;10362667;28;20133;-83
2023/05/23 14:43:48;;;;;;;4.78;1.20;;;;;;;0.01;0.00;59042.03;10337302;28;20450;-83
2023/05/23 14:48:50;;;;;;;2.95;0.93;;;;;;;0.01;0.00;59042.03;10367438;28;20041;-85
2023/05/23 14:53:52;;;;;;;5.55;1.33;;;;;;;0.01;0.00;59042.03;10349057;28;20038;-83
2023/05/23 14:58:56;;;;;;;4.75;0.88;;;;;;;0.01;0.00;59042.03;10322773;28;20076;-84
2023/05/23 15:03:57;;;;;;;1.90;0.57;;;;;;;0.01;0.00;59042.03;10333842;28;20755;-83
2023/05/23 15:09:03;;;;;;;5.60;1.05;;;;;;;0.01;0.00;59042.03;10362422;28;20578;-82
2023/05/23 15:14:04;;;;;;;2.75;0.82;;;;;;;0.01;0.00;59042.03;10370085;28;20038;-83
2023/05/23 15:19:06;;;;;;;5.13;0.70;;;;;;;0.01;0.00;59042.03;10339854;28;20060;-80
2023/05/23 15:24:08;;;;;;;3.05;0.88;;;;;;;0.01;0.00;59042.03;10332297;28;20965;-82
2023/05/23 15:29:11;;;;;;;3.90;1.10;;;;;;;0.01;0.00;59042.03;10334398;28;20066;-82
2023/05/23 15:34:12;;;;;;;4.03;1.45;;;;;;;0.01;0.00;59042.03;10335678;28;20057;-82
2023/05/23 15:39:15;;;;;;;3.83;0.93;;;;;;;0.01;0.00;59042.03;10366824;28;20065;-81
2023/05/23 15:44:19;;;;;;;2.88;1.35;;;;;;;0.01;0.00;59042.03;10370346;28;20076;-80
2023/05/23 15:49:21;;;;;;;6.07;0.50;;;;;;;0.01;0.00;59042.03;10367933;28;20050;-84
2023/05/23 15:54:27;;;;;;;4.90;1.23;;;;;;;0.01;0.00;59042.03;10329180;28;20169;-82
2023/05/23 15:59:30;;;;;;;6.60;0.95;;;;;;;0.01;0.00;59042.03;10367367;28;20081;-81
2023/05/23 16:04:32;;;;;;;4.95;0.90;;;;;;;0.01;0.00;59042.03;10354079;28;20062;-81
2023/05/23 16:09:33;;;;;;;3.38;0.93;;;;;;;0.01;0.00;59042.03;10341625;28;20058;-81
2023/05/23 16:14:35;;;;;;;1.63;0.47;;;;;;;0.01;0.00;59042.03;10356107;28;20065;-82
2023/05/23 16:19:36;;;;;;;4.68;1.02;;;;;;;0.01;0.00;59042.03;10348696;28;20081;-83
2023/05/23 16:24:38;;;;;;;3.15;0.90;;;;;;;0.01;0.00;59042.03;10353268;28;20046;-81
2023/05/23 16:29:40;;;;;;;4.03;0.80;;;;;;;0.01;0.00;59042.03;10363228;28;20589;-80
2023/05/23 16:34:42;;;;;;;7.30;1.02;;;;;;;0.01;0.00;59042.03;10361155;28;20045;-80
2023/05/23 16:39:48;;;;;;;5.20;0.90;;;;;;;0.01;0.00;59042.03;10361510;28;20046;-81
2023/05/23 16:44:50;;;;;;;8.90;0.77;;;;;;;0.01;0.00;59042.03;10339378;28;20077;-80
2023/05/23 16:49:52;;;;;;;3.10;0.50;;;;;;;0.01;0.00;59042.03;10339569;28;20056;-81
2023/05/23 16:54:54;;;;;;;0.57;0.40;;;;;;;0.01;0.00;59042.03;10363959;28;20069;-81
2023/05/23 16:59:56;;;;;;;5.15;1.30;;;;;;;0.01;0.00;59042.03;10364647;28;20124;-81
2023/05/23 17:04:58;;;;;;;5.60;1.15;;;;;;;0.01;0.00;59042.03;10360074;28;20041;-81
2023/05/23 17:10:00;;;;;;;4.13;1.20;;;;;;;0.01;0.00;59042.03;10334061;28;20084;-80
2023/05/23 17:15:02;;;;;;;2.10;0.70;;;;;;;0.01;0.00;59042.03;10363558;28;20046;-81
2023/05/23 17:20:05;;;;;;;4.82;1.08;;;;;;;0.01;0.00;59042.03;10362888;28;20054;-80
2023/05/23 17:25:06;;;;;;;4.18;0.95;;;;;;;0.01;0.00;59042.03;10362644;28;20553;-80
2023/05/23 17:30:13;;;;;;;2.72;0.55;;;;;;;0.01;0.00;59042.03;10327920;28;20104;-81
2023/05/23 17:35:14;;;;;;;4.55;1.02;;;;;;;0.01;0.00;59042.03;10357434;28;20129;-80
2023/05/23 17:40:16;;;;;;;3.42;0.70;;;;;;;0.01;0.00;59042.03;10362797;28;20124;-81
2023/05/23 17:45:18;;;;;;;4.05;0.88;;;;;;;0.01;0.00;59042.03;10360399;28;20824;-81
2023/05/23 17:50:19;;;;;;;6.57;0.77;;;;;;;0.01;0.00;59042.03;10355774;28;20077;-82
2023/05/23 17:55:21;;;;;;;3.53;0.98;;;;;;;0.01;0.00;59042.03;10329143;28;20052;-81
2023/05/23 18:00:23;;;;;;;2.58;0.75;;;;;;;0.01;0.00;59042.03;10361110;28;20117;-81
2023/05/23 18:05:24;;;;;;;1.17;0.60;;;;;;;0.01;0.00;59042.03;10356855;28;20042;-81
2023/05/23 18:10:26;;;;;;;5.97;1.05;;;;;;;0.01;0.00;59042.03;10360461;28;20045;-80
2023/05/23 18:15:27;;;;;;;1.90;0.70;;;;;;;0.01;0.00;59042.03;10362155;28;20408;-83
2023/05/23 18:20:29;;;;;;;;;;;;;;;0.01;0.00;59042.03;10336043;28;20148;-80
2023/05/23 18:25:30;;;;;;;5.05;0.75;;;;;;;0.01;0.00;59042.03;10325713;28;19927;-82
2023/05/23 18:30:32;;;;;;;3.08;1.08;;;;;;;0.01;0.00;59042.03;10342439;28;20931;-81
2023/05/23 18:35:34;;;;;;;2.15;0.70;;;;;;;0.01;0.00;59042.03;10356124;28;21034;-82
2023/05/23 18:40:35;;;;;;;3.55;0.77;;;;;;;0.01;0.00;59042.03;10360483;28;20050;-81
2023/05/23 18:45:37;;;;;;;1.08;0.60;;;;;;;0.01;0.00;59042.03;10360931;28;20061;-82
2023/05/23 18:50:39;;;;;;;2.03;0.55;;;;;;;0.01;0.00;59042.03;10361184;28;20466;-82
2023/05/23 18:55:41;;;;;;;9.80;1.13;;;;;;;0.01;0.00;59042.03;10357880;28;20644;-81
2023/05/23 19:00:43;;;;;;;2.33;0.60;;;;;;;0.01;0.00;59042.03;10328595;28;20049;-81
2023/05/23 19:05:45;;;;;;;3.03;1.08;;;;;;;0.01;0.00;59042.03;10333412;28;20738;-81
2023/05/23 19:10:46;;;;;;;2.53;0.57;;;;;;;0.01;0.00;59042.03;10325421;28;20128;-82
2023/05/23 19:15:49;;;;;;;2.40;1.52;;;;;;;0.01;0.00;59042.03;10362491;28;20046;-81
2023/05/23 19:20:51;;;;;;;2.30;0.93;;;;;;;0.01;0.00;59042.03;10360521;28;20050;-81
2023/05/23 19:25:52;;;;;;;2.60;0.85;;;;;;;0.01;0.00;59042.03;10332412;28;20046;-81
2023/05/23 19:30:54;;;;;;;5.25;0.55;;;;;;;0.01;0.00;59042.03;10341704;28;20046;-81
2023/05/23 19:35:56;;;;;;;4.22;0.57;;;;;;;0.01;0.00;59042.03;10357338;28;20081;-81
2023/05/23 19:40:57;;;;;;;10.57;1.58;;;;;;;0.01;0.00;59042.03;10363998;28;20061;-82
2023/05/23 19:45:59;;;;;;;3.13;1.02;;;;;;;0.01;0.00;59042.03;10360771;28;20077;-81
2023/05/23 19:51:02;;;;;;;4.07;1.48;;;;;;;0.01;0.00;59042.03;10359132;28;20133;-81
2023/05/23 19:56:03;;;;;;;4.80;1.45;;;;;;;0.01;0.00;59042.03;10361502;28;20145;-82
2023/05/23 20:01:05;;;;;;;2.83;0.80;;;;;;;0.01;0.00;59042.03;10367072;28;20073;-80
2023/05/23 20:06:07;;;;;;;3.88;0.82;;;;;;;0.01;0.00;59042.03;10363471;28;20402;-80
2023/05/23 20:11:09;;;;;;;3.65;0.68;;;;;;;0.01;0.00;59042.03;10338282;28;20129;-80
2023/05/23 20:16:13;;;;;;;1.45;0.70;;;;;;;0.01;0.00;59042.03;10322708;28;20496;-81
2023/05/23 20:21:15;;;;;;;4.05;1.20;;;;;;;0.01;0.00;59042.03;10348564;28;20064;-80
2023/05/23 20:26:17;;;;;;;1.23;0.68;;;;;;;0.01;0.00;59042.03;10367517;28;20072;-80
2023/05/23 20:31:18;;;;;;;1.27;0.90;;;;;;;0.01;0.00;59042.03;10341461;28;20507;-80
2023/05/23 20:36:20;;;;;;;3.22;0.50;;;;;;;0.01;0.00;59042.03;10361631;28;20133;-80
2023/05/23 20:41:22;;;;;;;2.88;0.98;;;;;;;0.01;0.00;59042.03;10348086;28;20045;-80
2023/05/23 20:46:24;;;;;;;2.22;0.85;;;;;;;0.01;0.00;59042.03;10367573;28;20550;-82
2023/05/23 20:51:26;;;;;;;1.75;0.70;;;;;;;0.01;0.00;59042.03;10366960;28;20078;-81
2023/05/23 20:56:29;;;;;;;4.50;0.90;;;;;;;0.01;0.00;59042.03;10366625;28;20061;-81
2023/05/23 21:01:31;;;;;;;1.98;0.60;;;;;;;0.01;0.00;59042.03;10347681;28;20673;-82
2023/05/23 21:06:33;;;;;;;8.48;2.03;;;;;;;0.01;0.00;59042.03;10356617;28;20053;-81
2023/05/23 21:11:35;;;;;;;3.15;1.00;;;;;;;0.01;0.00;59042.03;10365931;28;20596;-81
2023/05/23 21:16:37;;;;;;;1.73;0.70;;;;;;;0.01;0.00;59042.03;10366097;28;20056;-83
2023/05/23 21:21:38;;;;;;;4.63;1.30;;;;;;;0.01;0.00;59042.03;10347689;28;20038;-80
2023/05/23 21:26:40;;;;;;;0.63;0.52;;;;;;;0.01;0.00;59042.03;10366964;28;20049;-81
2023/05/23 21:31:41;;;;;;;8.98;1.52;;;;;;;0.01;0.00;59042.03;10346807;28;20132;-84
2023/05/23 21:36:43;;;;;;;2.33;0.68;;;;;;;0.01;0.00;59042.03;10334212;28;20061;-81
2023/05/23 21:41:45;;;;;;;1.90;0.80;;;;;;;0.01;0.00;59042.03;10364053;28;20072;-81
2023/05/23 21:46:46;;;;;;;10.93;1.73;;;;;;;0.01;0.00;59042.03;10364294;28;20165;-81
2023/05/23 21:51:48;;;;;;;6.68;1.27;;;;;;;0.01;0.00;59042.03;10365408;28;20080;-81
2023/05/23 21:56:50;;;;;;;4.88;0.57;;;;;;;0.01;0.00;59042.03;10333419;28;20042;-81
2023/05/23 22:01:51;;;;;;;5.57;1.25;;;;;;;0.01;0.00;59042.03;10364687;28;20694;-83
2023/05/23 22:06:53;;;;;;;5.47;1.00;;;;;;;0.01;0.00;59042.03;10361512;28;20472;-81
2023/05/23 22:11:55;;;;;;;1.83;0.65;;;;;;;0.01;0.00;59042.03;10366436;28;20073;-81
2023/05/23 22:17:00;;;;;;;4.03;1.33;;;;;;;0.01;0.00;59042.03;10346979;28;20474;-81
2023/05/23 22:22:02;;;;;;;4.38;0.90;;;;;;;0.01;0.00;59042.03;10324820;28;20158;-81
2023/05/23 22:27:04;;;;;;;4.10;1.38;;;;;;;0.01;0.00;59042.03;10346379;28;20046;-81
2023/05/23 22:32:05;;;;;;;4.70;2.05;;;;;;;0.01;0.00;59042.03;10365676;28;20042;-82
2023/05/23 22:37:08;;;;;;;1.55;1.08;;;;;;;0.01;0.00;59042.03;10359201;28;20049;-83
2023/05/23 22:42:09;;;;;;;2.28;1.20;;;;;;;0.01;0.00;59042.03;10342420;28;20097;-82
2023/05/23 22:47:12;;;;;;;9.95;1.95;;;;;;;0.01;0.00;59042.03;10364797;28;20053;-83
2023/05/23 22:52:15;;;;;;;5.72;1.85;;;;;;;0.01;0.00;59042.03;10346074;28;20136;-80
2023/05/23 22:57:17;;;;;;;3.20;1.17;;;;;;;0.01;0.00;59042.03;10364331;28;20455;-81
2023/05/23 23:02:18;;;;;;;3.67;1.63;;;;;;;0.01;0.00;59042.03;10343571;28;20077;-81
2023/05/23 23:07:20;;;;;;;4.90;0.80;;;;;;;0.01;0.00;59042.03;10358671;28;20041;-81
2023/05/23 23:12:22;;;;;;;3.55;1.30;;;;;;;0.01;0.00;59042.03;10363301;28;20628;-82
2023/05/23 23:17:23;;;;;;;2.08;1.17;;;;;;;0.01;0.00;59042.03;10330188;28;20050;-83
2023/05/23 23:22:25;;;;;;;2.60;1.00;;;;;;;0.01;0.00;59042.03;10343569;28;20041;-80
2023/05/23 23:27:29;;;;;;;2.30;1.58;;;;;;;0.01;0.00;59042.03;10363368;28;20073;-81
2023/05/23 23:32:31;;;;;;;6.78;2.13;;;;;;;0.01;0.00;59042.03;10368697;28;20698;-81
2023/05/23 23:37:34;;;;;;;3.55;1.15;;;;;;;0.01;0.00;59042.03;10364586;28;20125;-81
2023/05/23 23:42:36;;;;;;;4.32;1.77;;;;;;;0.01;0.00;59042.03;10370130;28;20042;-81
2023/05/23 23:47:37;;;;;;;1.75;1.00;;;;;;;0.01;0.00;59042.03;10364955;28;20077;-81
2023/05/23 23:52:39;;;;;;;4.60;1.38;;;;;;;0.01;0.00;59042.03;10349334;28;20042;-82
2023/05/23 23:57:41;;;;;;;7.97;1.20;;;;;;;0.01;0.00;59042.03;10368856;28;20038;-81
